Welcome to Northern Hawkes Bay. New Zealand.
PWS Header
      nz Flag



Hit Counter


W3C Valid W3C Valid logo


    Wairoa

Select any of the Stations below to visit their websites.










Historic Data from Weather Underground
Select the location of interest below. Wairoa is the default. Please have patience, this Data is slow to load in.
Northern Hawkes Bay Historical Data
Daily Summary for May 18, 2017 Units:  English    Metric   Both
« Previous Day
Next Day »
Daily Weekly Monthly Yearly Custom
  High: Low: Average:
Temperature: 71.2 °F 48.9 °F 59.4 °F
Dew Point: 57.7 °F 48.6 °F 52.9 °F
Humidity: 99% 60% 80%
Wind Speed: 27.3mph 0mph 6.2mph
Wind Gust: 56.4mph - -
Wind- - South
Pressure: 29.8 in 29.5 in -
Precipitation: 0.25 in    
Historical Graphs
 
 
Tabular Data for May 18, 2017
Time Temperature Dew Point Pressure Wind Wind Speed Wind Gust Humidity Rainfall Rate (Hourly) solar
00:07 57.2 °F 53.1 °F 29.8 in Calm   0.7 mph 86% 0 in 0 W/m2
00:12 57.2 °F 53.4 °F 29.8 in Calm     87% 0 in 0 W/m2
00:17 57.2 °F 53.4 °F 29.8 in NW 2.2 mph 3.1 mph 87% 0 in 0 W/m2
00:22 56.8 °F 53.2 °F 29.8 in NNW 0.7 mph 3.1 mph 88% 0 in 0 W/m2
00:27 56.5 °F 53.1 °F 29.8 in NW 0.7 mph 3.1 mph 88% 0 in 0 W/m2
00:32 56.3 °F 52.9 °F 29.8 in Calm   1.6 mph 88% 0 in 0 W/m2
00:37 55.9 °F 52.3 °F 29.8 in Calm   1.6 mph 88% 0 in 0 W/m2
00:42 55.4 °F 52 °F 29.8 in Calm     88% 0 in 0 W/m2
00:47 55.2 °F 52 °F 29.8 in Calm     89% 0 in 0 W/m2
00:52 55.2 °F 52.3 °F 29.8 in Calm     90% 0 in 0 W/m2
00:57 55.2 °F 52.3 °F 29.8 in East 0.7 mph 2.2 mph 90% 0 in 0 W/m2
01:02 55.6 °F 52.7 °F 29.8 in East 1.6 mph 3.1 mph 90% 0 in 0 W/m2
01:07 56.5 °F 53.6 °F 29.8 in East 2.2 mph 3.8 mph 90% 0 in 0 W/m2
01:12 57.9 °F 54.3 °F 29.8 in East 1.6 mph 5.4 mph 88% 0 in 0 W/m2
01:17 58.6 °F 54.5 °F 29.8 in Calm   5.4 mph 86% 0 in 0 W/m2
01:22 58.6 °F 54.1 °F 29.8 in Calm   3.1 mph 85% 0 in 0 W/m2
01:27 58.3 °F 53.4 °F 29.8 in Calm   3.1 mph 84% 0 in 0 W/m2
01:32 57.7 °F 52.9 °F 29.7 in ENE 0.7 mph 2.2 mph 84% 0 in 0 W/m2
01:37 57.2 °F 52.3 °F 29.8 in North 1.6 mph 4.5 mph 84% 0 in 0 W/m2
01:42 56.5 °F 52.3 °F 29.7 in North 1.6 mph 4.5 mph 86% 0 in 0 W/m2
01:47 56.3 °F 52.5 °F 29.7 in NNW 0.7 mph 3.1 mph 87% 0 in 0 W/m2
01:52 55.9 °F 52.2 °F 29.7 in Calm   3.1 mph 87% 0 in 0 W/m2
01:57 56.8 °F 53.2 °F 29.7 in ESE 3.1 mph 7.6 mph 88% 0 in 0 W/m2
02:02 58.8 °F 54.7 °F 29.7 in Calm   7.6 mph 86% 0 in 0 W/m2
02:07 59.5 °F 54.3 °F 29.7 in East 0.7 mph 5.4 mph 83% 0 in 0 W/m2
02:12 59.7 °F 54.1 °F 29.7 in East 6 mph 9.2 mph 82% 0 in 0 W/m2
02:17 60.6 °F 54.1 °F 29.7 in East 3.1 mph 9.2 mph 79% 0 in 0 W/m2
02:22 60.8 °F 53.6 °F 29.7 in ENE 1.6 mph 9.2 mph 77% 0 in 0 W/m2
02:27 59.9 °F 53.4 °F 29.7 in NE 2.2 mph 6.9 mph 79% 0 in 0 W/m2
02:32 59.4 °F 52.9 °F 29.7 in NNE 0.7 mph 6.9 mph 79% 0 in 0 W/m2
02:37 59 °F 53.2 °F 29.7 in North 2.2 mph 3.8 mph 81% 0 in 0 W/m2
02:42 58.1 °F 52.5 °F 29.7 in Calm   3.8 mph 82% 0 in 0 W/m2
02:47 57.9 °F 53.1 °F 29.7 in NNW 1.6 mph 4.5 mph 84% 0 in 0 W/m2
02:52 58.5 °F 53.8 °F 29.7 in Calm   4.5 mph 84% 0 in 0 W/m2
02:57 58.1 °F 53.1 °F 29.7 in Calm   3.1 mph 83% 0 in 0 W/m2
03:02 57.7 °F 52.9 °F 29.7 in North 1.6 mph 2.2 mph 84% 0 in 0 W/m2
03:07 56.8 °F 52.3 °F 29.7 in NNW 1.6 mph 3.8 mph 85% 0 in 0 W/m2
03:12 56.5 °F 52.3 °F 29.7 in NNW 1.6 mph 3.8 mph 86% 0 in 0 W/m2
03:17 56.5 °F 52.7 °F 29.7 in North 2.2 mph 4.5 mph 87% 0 in 0 W/m2
03:22 56.3 °F 52.5 °F 29.7 in North 1.6 mph 4.5 mph 87% 0 in 0 W/m2
03:27 56.5 °F 53.1 °F 29.7 in NNW 0.7 mph 4.5 mph 88% 0 in 0 W/m2
03:32 56.7 °F 53.2 °F 29.7 in NNW 0.7 mph 3.1 mph 88% 0 in 0 W/m2
03:37 56.8 °F 53.1 °F 29.7 in North 2.2 mph 3.1 mph 87% 0 in 0 W/m2
03:42 56.8 °F 53.1 °F 29.7 in NNW 0.7 mph 3.1 mph 87% 0 in 0 W/m2
03:47 57 °F 53.2 °F 29.7 in NNW 3.8 mph 6.9 mph 87% 0 in 0 W/m2
03:52 58.1 °F 53.6 °F 29.7 in NNE 0.7 mph 6.9 mph 85% 0 in 0 W/m2
03:57 57.9 °F 53.1 °F 29.7 in NNE 1.6 mph 6.9 mph 84% 0 in 0 W/m2
04:02 57.4 °F 52.5 °F 29.7 in NW 2.2 mph 3.8 mph 84% 0 in 0 W/m2
04:07 57.4 °F 52.9 °F 29.7 in NNW 1.6 mph 3.8 mph 85% 0 in 0 W/m2
04:12 57 °F 52.9 °F 29.7 in NNW 2.2 mph 3.8 mph 86% 0 in 0 W/m2
04:17 56.7 °F 52.5 °F 29.7 in NNW 1.6 mph 3.8 mph 86% 0 in 0 W/m2
04:22 57 °F 53.2 °F 29.7 in North 1.6 mph 5.4 mph 87% 0 in 0 W/m2
04:27 57.4 °F 53.2 °F 29.7 in NNE 1.6 mph 5.4 mph 86% 0 in 0 W/m2
04:32 57.4 °F 52.9 °F 29.7 in NNE 1.6 mph 5.4 mph 85% 0 in 0 W/m2
04:37 58.1 °F 53.6 °F 29.7 in NNE 3.1 mph 5.4 mph 85% 0 in 0 W/m2
04:42 58.8 °F 54 °F 29.7 in NNE 3.1 mph 5.4 mph 84% 0 in 0 W/m2
04:47 59.4 °F 53.2 °F 29.7 in North 3.1 mph 6 mph 80% 0 in 0 W/m2
04:52 59.9 °F 53.4 °F 29.7 in North 3.8 mph 7.6 mph 79% 0.01 in 0 W/m2
04:57 60.6 °F 53.4 °F 29.7 in NNE 5.4 mph 8.3 mph 77% 0.01 in 0 W/m2
05:02 61.5 °F 53.2 °F 29.7 in NNE 4.5 mph 8.3 mph 74% 0.01 in 0 W/m2
05:07 61.7 °F 53.2 °F 29.7 in North 4.5 mph 7.6 mph 74% 0.01 in 0 W/m2
05:12 62.4 °F 53.8 °F 29.7 in North 4.5 mph 12.1 mph 73% 0.01 in 0 W/m2
05:17 63 °F 53.4 °F 29.7 in North 6 mph 12.1 mph 71% 0.01 in 0 W/m2
05:22 63.3 °F 53.8 °F 29.7 in North 6.9 mph 11.4 mph 71% 0.01 in 0 W/m2
05:27 63.7 °F 53.8 °F 29.7 in North 3.1 mph 13 mph 70% 0.01 in 0 W/m2
05:32 63.1 °F 53.6 °F 29.6 in North 3.8 mph 13 mph 71% 0.01 in 0 W/m2
05:37 63.1 °F 53.6 °F 29.6 in North 7.6 mph 12.1 mph 71% 0.01 in 0 W/m2
05:42 63.5 °F 54 °F 29.6 in North 6 mph 12.1 mph 71% 0.01 in 0 W/m2
05:47 63.9 °F 54 °F 29.6 in North 10.7 mph 13 mph 70% 0.01 in 0 W/m2
05:52 64 °F 54.1 °F 29.6 in North 5.4 mph 13 mph 70% 0 in 0 W/m2
05:57 64 °F 54.1 °F 29.6 in North 6.9 mph 15.2 mph 70% 0 in 0 W/m2
06:02 64 °F 53.8 °F 29.6 in NNE 8.3 mph 15.2 mph 69% 0 in 0 W/m2
06:07 64.2 °F 54 °F 29.6 in NNE 4.5 mph 14.5 mph 69% 0 in 0 W/m2
06:12 64 °F 53.8 °F 29.6 in North 3.8 mph 13 mph 69% 0 in 0 W/m2
06:17 63.9 °F 53.4 °F 29.6 in North 4.5 mph 8.3 mph 69% 0 in 0 W/m2
06:22 63.9 °F 53.4 °F 29.6 in North 3.8 mph 11.4 mph 69% 0 in 0 W/m2
06:27 63.9 °F 53.4 °F 29.6 in North 6 mph 11.4 mph 69% 0 in 0 W/m2
06:32 63.9 °F 53.4 °F 29.6 in NNE 3.8 mph 9.2 mph 69% 0 in 0 W/m2
06:37 63.7 °F 53.8 °F 29.6 in NNE 4.5 mph 9.2 mph 70% 0 in 0 W/m2
06:42 63.7 °F 53.8 °F 29.6 in NNE 5.4 mph 9.8 mph 70% 0 in 0 W/m2
06:47 63.7 °F 53.8 °F 29.6 in NNE 4.5 mph 9.8 mph 70% 0 in 0 W/m2
06:52 63.5 °F 53.6 °F 29.6 in NNE 2.2 mph 8.3 mph 70% 0 in 0 W/m2
06:57 63.5 °F 54 °F 29.6 in NNE 3.8 mph 8.3 mph 71% 0 in 0 W/m2
07:02 63.3 °F 53.8 °F 29.6 in NNE 2.2 mph 7.6 mph 71% 0 in 0 W/m2
07:07 63.1 °F 53.6 °F 29.6 in NE 0.7 mph 8.3 mph 71% 0 in 0 W/m2
07:12 63 °F 53.4 °F 29.6 in NE 2.2 mph 8.3 mph 71% 0 in 1 W/m2
07:17 63 °F 53.8 °F 29.6 in NNE 3.8 mph 8.3 mph 72% 0 in 4 W/m2
07:22 63.1 °F 54 °F 29.6 in NE 3.8 mph 8.3 mph 72% 0 in 6 W/m2
07:27 63.5 °F 54 °F 29.6 in NE 4.5 mph 9.2 mph 71% 0 in 24 W/m2
07:32 64 °F 54.5 °F 29.6 in North 5.4 mph 9.2 mph 71% 0 in 9 W/m2
07:37 63.9 °F 54.3 °F 29.6 in NNE 4.5 mph 9.2 mph 71% 0 in 13 W/m2
07:42 63.7 °F 54.1 °F 29.6 in NNE 1.6 mph 9.2 mph 71% 0 in 18 W/m2
07:47 63.9 °F 54.7 °F 29.6 in NNE 1.6 mph 9.2 mph 72% 0 in 21 W/m2
07:52 63.7 °F 54.5 °F 29.6 in NNE 4.5 mph 9.2 mph 72% 0 in 24 W/m2
07:57 63.7 °F 54.5 °F 29.6 in NNE 5.4 mph 8.3 mph 72% 0 in 25 W/m2
08:03 63.7 °F 54.9 °F 29.6 in NNE 3.1 mph 9.2 mph 73% 0 in 26 W/m2
08:08 63.5 °F 54.7 °F 29.6 in North 4.5 mph 13.6 mph 73% 0 in 27 W/m2
08:13 63.5 °F 55 °F 29.6 in NNE 9.8 mph 13.6 mph 74% 0 in 32 W/m2
08:18 63.9 °F 55.4 °F 29.6 in NNE 6 mph 17.4 mph 74% 0 in 39 W/m2
08:23 63.9 °F 55.4 °F 29.6 in North 6.9 mph 17.4 mph 74% 0 in 45 W/m2
08:28 63.9 °F 55.4 °F 29.6 in North 4.5 mph 12.1 mph 74% 0 in 49 W/m2
08:33 63.9 °F 55.4 °F 29.6 in North 6 mph 12.1 mph 74% 0 in 52 W/m2
08:38 63.7 °F 55.2 °F 29.6 in NNE 9.2 mph 18.3 mph 74% 0 in 54 W/m2
08:43 63.9 °F 55.4 °F 29.6 in NNE 7.6 mph 18.3 mph 74% 0 in 57 W/m2
08:48 63.9 °F 55.8 °F 29.6 in North 6 mph 18.3 mph 75% 0 in 58 W/m2
08:53 64 °F 55.6 °F 29.6 in North 6.9 mph 13.6 mph 74% 0 in 66 W/m2
08:58 64.2 °F 55.8 °F 29.6 in North 4.5 mph 20.6 mph 74% 0 in 72 W/m2
09:03 64.4 °F 56.3 °F 29.6 in NNE 4.5 mph 20.6 mph 75% 0 in 73 W/m2
09:08 64.6 °F 56.1 °F 29.6 in NNE 6.9 mph 11.4 mph 74% 0 in 79 W/m2
09:13 64.9 °F 56.5 °F 29.6 in NNE 4.5 mph 13.6 mph 74% 0 in 106 W/m2
09:18 65.1 °F 56.3 °F 29.6 in NNE 7.6 mph 13.6 mph 73% 0 in 86 W/m2
09:23 65.1 °F 56.3 °F 29.6 in North 4.5 mph 13 mph 73% 0 in 88 W/m2
09:28 65.3 °F 56.5 °F 29.6 in North 9.8 mph 13.6 mph 73% 0 in 91 W/m2
09:33 65.5 °F 56.7 °F 29.6 in North 12.1 mph 15.2 mph 73% 0 in 94 W/m2
09:38 65.7 °F 56.5 °F 29.6 in North 9.2 mph 16.8 mph 72% 0 in 99 W/m2
09:43 66 °F 56.8 °F 29.5 in North 9.2 mph 19 mph 72% 0 in 105 W/m2
09:48 66.2 °F 56.1 °F 29.5 in North 10.7 mph 19 mph 70% 0 in 120 W/m2
09:53 66.9 °F 56.5 °F 29.5 in North 8.3 mph 17.4 mph 69% 0 in 133 W/m2
09:58 68.2 °F 56.8 °F 29.5 in North 7.6 mph 15.9 mph 67% 0 in 134 W/m2
10:03 68.5 °F 56.8 °F 29.5 in NNE 9.2 mph 17.4 mph 66% 0 in 154 W/m2
10:08 69.3 °F 57 °F 29.5 in NNE 8.3 mph 17.4 mph 65% 0 in 175 W/m2
10:13 69.8 °F 57 °F 29.5 in NNE 4.5 mph 13.6 mph 64% 0 in 185 W/m2
10:18 70.2 °F 56.7 °F 29.5 in NNE 7.6 mph 15.2 mph 62% 0 in 183 W/m2
10:23 69.8 °F 56.7 °F 29.5 in NNE 6 mph 15.2 mph 63% 0 in 176 W/m2
10:28 68.9 °F 56.7 °F 29.5 in NNE 6.9 mph 16.8 mph 65% 0 in 178 W/m2
10:34 68.5 °F 56.3 °F 29.5 in North 15.2 mph 18.3 mph 65% 0 in 177 W/m2
10:40 68.5 °F 56.3 °F 29.5 in North 7.6 mph 21.3 mph 65% 0 in 176 W/m2
10:45 68.5 °F 56.8 °F 29.5 in North 6.9 mph 21.3 mph 66% 0 in 171 W/m2
10:51 68.5 °F 56.8 °F 29.5 in North 8.3 mph 15.2 mph 66% 0 in 173 W/m2
10:56 68.4 °F 56.7 °F 29.5 in North 9.8 mph 17.4 mph 66% 0 in 170 W/m2
11:00 68.4 °F 56.7 °F 29.5 in North 9.8 mph 17.4 mph 66% 0 in 162 W/m2
11:05 68.4 °F 57 °F 29.5 in NNE 9.2 mph 13.6 mph 67% 0 in 158 W/m2
11:06 68.4 °F 56.7 °F 29.5 in NNE 9.2 mph 13.6 mph 66% 0 in 156 W/m2
11:11 68.2 °F 56.8 °F 29.5 in NNE 9.2 mph 14.5 mph 67% 0 in 147 W/m2
11:16 68.2 °F 56.8 °F 29.5 in NNE 12.1 mph 17.4 mph 67% 0 in 150 W/m2
11:21 68 °F 56.7 °F 29.5 in North 5.4 mph 17.4 mph 67% 0 in 157 W/m2
11:26 68.2 °F 57.2 °F 29.5 in North 6.9 mph 15.2 mph 68% 0 in 170 W/m2
11:31 68.2 °F 56.8 °F 29.5 in North 5.4 mph 19 mph 67% 0 in 168 W/m2
11:36 68.4 °F 57 °F 29.5 in North 7.6 mph 19 mph 67% 0 in 177 W/m2
11:41 68.5 °F 57.2 °F 29.5 in NNW 8.3 mph 15.9 mph 67% 0 in 187 W/m2
11:46 68.7 °F 57.4 °F 29.5 in NNW 9.2 mph 16.8 mph 67% 0 in 205 W/m2
11:51 69.1 °F 57.7 °F 29.5 in North 9.8 mph 17.4 mph 67% 0 in 205 W/m2
11:56 69.6 °F 57.7 °F 29.5 in North 7.6 mph 17.4 mph 66% 0 in 244 W/m2
12:01 69.6 °F 57.7 °F 29.5 in North 11.4 mph 16.8 mph 66% 0 in 172 W/m2
12:06 69.4 °F 57.2 °F 29.5 in North 9.8 mph 18.3 mph 65% 0 in 148 W/m2
12:11 69.3 °F 57.4 °F 29.5 in NNW 7.6 mph 18.3 mph 66% 0 in 175 W/m2
12:16 69.3 °F 57.4 °F 29.5 in NNW 9.8 mph 18.3 mph 66% 0 in 139 W/m2
12:21 69.4 °F 57.6 °F 29.5 in North 5.4 mph 18.3 mph 66% 0 in 140 W/m2
12:26 69.6 °F 57.7 °F 29.5 in North 9.8 mph 16.8 mph 66% 0 in 153 W/m2
12:31 69.6 °F 57.7 °F 29.5 in North 5.4 mph 13 mph 66% 0 in 170 W/m2
12:36 70 °F 56.8 °F 29.5 in North 6.9 mph 14.5 mph 63% 0 in 184 W/m2
12:41 70.5 °F 56.8 °F 29.5 in NNW 10.7 mph 21.3 mph 62% 0 in 208 W/m2
12:46 70.7 °F 57.6 °F 29.5 in NNW 8.3 mph 21.3 mph 63% 0 in 161 W/m2
12:51 70.5 °F 57.4 °F 29.5 in NNW 12.1 mph 16.8 mph 63% 0 in 178 W/m2
12:56 70.9 °F 57.7 °F 29.5 in NNW 6 mph 16.8 mph 63% 0 in 190 W/m2
13:01 71.2 °F 57.6 °F 29.5 in NW 9.8 mph 19 mph 62% 0 in 217 W/m2
13:06 71.2 °F 56.7 °F 29.5 in NW 7.6 mph 19.7 mph 60% 0 in 281 W/m2
13:11 67.8 °F 55.2 °F 29.5 in West 21.3 mph 56.4 mph 64% 0.18 in 79 W/m2
13:16 58.8 °F 54.3 °F 29.6 in WSW 18.3 mph 56.4 mph 85% 0.22 in 128 W/m2
13:19 58.3 °F 54.3 °F 29.6 in WSW 22.8 mph 56.4 mph 87% 0.24 in 139 W/m2
13:25 58.8 °F 55.6 °F 29.6 in WSW 19.7 mph 39.6 mph 89% 0.24 in 214 W/m2
13:30 59.5 °F 55.8 °F 29.6 in SW 27.3 mph 39.6 mph 87% 0.24 in 226 W/m2
13:35 59.2 °F 54.7 °F 29.6 in WSW 18.3 mph 37.4 mph 85% 0.24 in 215 W/m2
13:40 59.9 °F 55 °F 29.6 in WSW 21.3 mph 34.2 mph 84% 0.24 in 220 W/m2
13:45 59.7 °F 54.1 °F 29.6 in WSW 15.2 mph 38.7 mph 82% 0.24 in 204 W/m2
13:50 59.9 °F 54.1 °F 29.6 in West 15.9 mph 38.7 mph 81% 0.24 in 203 W/m2
13:55 59.2 °F 53.1 °F 29.6 in West 22.8 mph 38.7 mph 80% 0.24 in 204 W/m2
14:00 59 °F 53.2 °F 29.6 in SW 19.7 mph 30.4 mph 81% 0.24 in 182 W/m2
14:05 59 °F 52.9 °F 29.6 in SW 22.1 mph 36.5 mph 80% 0.24 in 206 W/m2
14:10 59 °F 52.9 °F 29.6 in WSW 18.3 mph 36.5 mph 80% 0.06 in 173 W/m2
14:15 58.6 °F 52.5 °F 29.6 in WSW 18.3 mph 32.7 mph 80% 0.01 in 192 W/m2
14:20 59 °F 52.5 °F 29.6 in WSW 19 mph 32.7 mph 79% 0 in 197 W/m2
14:25 58.8 °F 52.3 °F 29.6 in SW 22.1 mph 31.1 mph 79% 0 in 138 W/m2
14:30 58.6 °F 52.5 °F 29.6 in SW 14.5 mph 28.9 mph 80% 0 in 140 W/m2
14:35 58.6 °F 52.5 °F 29.6 in WSW 22.8 mph 29.8 mph 80% 0 in 135 W/m2
14:40 58.8 °F 52.3 °F 29.6 in WSW 17.4 mph 29.8 mph 79% 0 in 273 W/m2
14:45 59.2 °F 52 °F 29.6 in SW 19.7 mph 29.8 mph 77% 0 in 309 W/m2
14:50 59.4 °F 51.8 °F 29.6 in SW 16.8 mph 33.6 mph 76% 0 in 182 W/m2
14:55 59 °F 51.8 °F 29.6 in WSW 19.7 mph 33.6 mph 77% 0 in 171 W/m2
14:59 59 °F 51.8 °F 29.6 in WSW 17.4 mph 30.4 mph 77% 0 in 261 W/m2
15:04 59.2 °F 51.6 °F 29.6 in SW 17.4 mph 31.1 mph 76% 0 in 81 W/m2
15:09 58.5 °F 51.6 °F 29.6 in SW 13 mph 31.1 mph 78% 0 in 100 W/m2
15:15 58.3 °F 51.8 °F 29.6 in SW 14.5 mph 22.1 mph 79% 0 in 254 W/m2
15:20 58.5 °F 51.3 °F 29.6 in SW 11.4 mph 25.9 mph 77% 0 in 154 W/m2
15:25 58.8 °F 51.6 °F 29.6 in SW 12.1 mph 25.9 mph 77% 0 in 179 W/m2
15:30 59 °F 51.4 °F 29.6 in WSW 14.5 mph 24.4 mph 76% 0 in 133 W/m2
15:35 59.2 °F 51.6 °F 29.6 in WSW 10.7 mph 24.4 mph 76% 0 in 175 W/m2
15:40 59.4 °F 51.8 °F 29.6 in WSW 15.2 mph 23.5 mph 76% 0 in 159 W/m2
15:45 59.5 °F 51.6 °F 29.6 in WSW 17.4 mph 24.4 mph 75% 0 in 131 W/m2
15:50 59 °F 51.1 °F 29.6 in WSW 9.8 mph 25.9 mph 75% 0 in 68 W/m2
15:55 58.1 °F 51.3 °F 29.6 in SW 10.7 mph 25.9 mph 78% 0 in 43 W/m2
16:00 57.6 °F 51.1 °F 29.6 in SW 13.6 mph 20.6 mph 79% 0 in 41 W/m2
16:05 57.4 °F 50.5 °F 29.6 in WSW 13 mph 24.4 mph 78% 0 in 43 W/m2
16:10 57.4 °F 50.5 °F 29.6 in SW 15.9 mph 25.9 mph 78% 0 in 39 W/m2
16:15 57.4 °F 50.9 °F 29.6 in SW 13.6 mph 25.9 mph 79% 0 in 38 W/m2
16:20 57.4 °F 50.9 °F 29.6 in SW 12.1 mph 25.9 mph 79% 0 in 31 W/m2
16:25 57.4 °F 50.9 °F 29.6 in SW 6.9 mph 19.7 mph 79% 0 in 25 W/m2
16:30 57.4 °F 51.3 °F 29.6 in SW 11.4 mph 18.3 mph 80% 0 in 21 W/m2
16:35 57.4 °F 50.9 °F 29.7 in SW 11.4 mph 16.8 mph 79% 0 in 20 W/m2
16:40 57.4 °F 50.9 °F 29.7 in WSW 9.8 mph 16.8 mph 79% 0 in 18 W/m2
16:45 57.4 °F 50.5 °F 29.7 in WSW 5.4 mph 15.2 mph 78% 0 in 16 W/m2
16:50 57.6 °F 51.1 °F 29.7 in WSW 10.7 mph 15.9 mph 79% 0 in 13 W/m2
16:55 57.4 °F 50.9 °F 29.7 in WSW 9.2 mph 16.8 mph 79% 0 in 8 W/m2
17:00 57.4 °F 50.5 °F 29.7 in SW 9.2 mph 16.8 mph 78% 0 in 5 W/m2
17:05 57.4 °F 50.5 °F 29.7 in WSW 11.4 mph 17.4 mph 78% 0 in 2 W/m2
17:10 57.4 °F 50.5 °F 29.7 in SW 6.9 mph 17.4 mph 78% 0 in 0 W/m2
17:15 57.4 °F 50.2 °F 29.7 in SW 5.4 mph 17.4 mph 77% 0 in 0 W/m2
17:20 57.2 °F 50.2 °F 29.7 in SW 5.4 mph 15.9 mph 77% 0 in 0 W/m2
17:25 57 °F 50.5 °F 29.7 in WSW 7.6 mph 15.9 mph 79% 0 in 0 W/m2
17:30 57 °F 50.5 °F 29.7 in West 6 mph 15.2 mph 79% 0 in 0 W/m2
17:35 57 °F 50.9 °F 29.7 in WSW 8.3 mph 15.2 mph 80% 0 in 0 W/m2
17:40 57 °F 50.9 °F 29.7 in WSW 5.4 mph 13 mph 80% 0 in 0 W/m2
17:45 57 °F 51.3 °F 29.7 in WSW 4.5 mph 13 mph 81% 0 in 0 W/m2
17:50 57 °F 51.3 °F 29.7 in SW 7.6 mph 13 mph 81% 0 in 0 W/m2
18:00 57 °F 50.9 °F 29.7 in WSW 9.2 mph 16.8 mph 80% 0 in 0 W/m2
18:05 57 °F 50.9 °F 29.7 in WSW 9.8 mph 16.8 mph 80% 0 in 0 W/m2
18:10 57 °F 50.9 °F 29.7 in SW 3.1 mph 16.8 mph 80% 0 in 0 W/m2
18:15 57 °F 51.3 °F 29.7 in SW 6.9 mph 16.8 mph 81% 0 in 0 W/m2
18:20 56.8 °F 51.1 °F 29.7 in WSW 4.5 mph 13 mph 81% 0 in 0 W/m2
18:25 56.7 °F 50.9 °F 29.7 in WSW 8.3 mph 14.5 mph 81% 0 in 0 W/m2
18:30 56.7 °F 50.9 °F 29.7 in WSW 3.8 mph 14.5 mph 81% 0 in 0 W/m2
18:35 56.7 °F 50.9 °F 29.7 in SW 3.8 mph 11.4 mph 81% 0 in 0 W/m2
18:40 56.5 °F 51.1 °F 29.7 in WSW 4.5 mph 12.1 mph 82% 0 in 0 W/m2
18:42 56.5 °F 51.1 °F 29.7 in SW 6.9 mph 12.1 mph 82% 0 in 0 W/m2
18:47 56.5 °F 51.1 °F 29.7 in SW 9.2 mph 13 mph 82% 0 in 0 W/m2
18:52 56.5 °F 51.1 °F 29.7 in SW 4.5 mph 13 mph 82% 0 in 0 W/m2
18:57 56.3 °F 51.3 °F 29.7 in WSW 5.4 mph 9.8 mph 83% 0 in 0 W/m2
19:02 56.5 °F 51.6 °F 29.7 in WSW 4.5 mph 12.1 mph 84% 0 in 0 W/m2
19:08 56.3 °F 51.4 °F 29.7 in WSW 4.5 mph 12.1 mph 84% 0 in 0 W/m2
19:13 56.3 °F 51.4 °F 29.7 in WSW 5.4 mph 8.3 mph 84% 0 in 0 W/m2
19:18 56.5 °F 51.6 °F 29.7 in West 3.8 mph 8.3 mph 84% 0 in 0 W/m2
19:23 56.5 °F 51.6 °F 29.7 in WSW 5.4 mph 8.3 mph 84% 0 in 0 W/m2
19:28 56.5 °F 51.6 °F 29.7 in WSW 3.8 mph 7.6 mph 84% 0 in 0 W/m2
19:33 56.3 °F 51.4 °F 29.7 in WSW 3.1 mph 7.6 mph 84% 0 in 0 W/m2
19:38 56.1 °F 51.4 °F 29.7 in WSW 2.2 mph 6 mph 84% 0 in 0 W/m2
19:43 56.1 °F 51.4 °F 29.7 in West 1.6 mph 5.4 mph 84% 0 in 0 W/m2
19:48 55.9 °F 51.4 °F 29.7 in West 2.2 mph 4.5 mph 85% 0 in 0 W/m2
19:53 55.6 °F 51.3 °F 29.7 in Calm   4.5 mph 85% 0 in 0 W/m2
19:58 55.4 °F 50.7 °F 29.7 in Calm   3.1 mph 84% 0 in 0 W/m2
20:03 54.9 °F 50.2 °F 29.7 in North 0.7 mph 1.6 mph 84% 0 in 0 W/m2
20:08 54.3 °F 49.6 °F 29.7 in Calm   2.2 mph 84% 0 in 0 W/m2
20:13 54 °F 49.6 °F 29.7 in NNW 1.6 mph 3.1 mph 85% 0 in 0 W/m2
20:18 53.6 °F 49.5 °F 29.7 in NNW 1.6 mph 3.1 mph 86% 0 in 0 W/m2
20:23 53.4 °F 50 °F 29.7 in NNW 1.6 mph 2.2 mph 88% 0 in 0 W/m2
20:28 53.1 °F 49.6 °F 29.7 in NW 1.6 mph 2.2 mph 88% 0 in 0 W/m2
20:33 52.7 °F 49.3 °F 29.7 in WNW 2.2 mph 3.8 mph 88% 0 in 0 W/m2
20:38 52.7 °F 49.6 °F 29.7 in NW 1.6 mph 3.8 mph 89% 0 in 0 W/m2
20:43 52.5 °F 49.6 °F 29.7 in NW 2.2 mph 3.1 mph 90% 0 in 0 W/m2
20:48 52.3 °F 49.8 °F 29.7 in NW 2.2 mph 4.5 mph 91% 0 in 0 W/m2
20:53 52.2 °F 49.8 °F 29.7 in NW 1.6 mph 4.5 mph 92% 0 in 0 W/m2
20:58 51.6 °F 49.6 °F 29.7 in NW 1.6 mph 3.8 mph 93% 0 in 0 W/m2
21:03 51.4 °F 49.5 °F 29.7 in NNW 1.6 mph 3.1 mph 93% 0 in 0 W/m2
21:08 51.3 °F 49.3 °F 29.7 in Calm   3.1 mph 93% 0 in 0 W/m2
21:13 51.1 °F 49.1 °F 29.7 in Calm   3.1 mph 93% 0 in 0 W/m2
21:18 51.1 °F 49.1 °F 29.7 in North 2.2 mph 3.1 mph 93% 0 in 0 W/m2
21:23 51.1 °F 49.5 °F 29.7 in Calm   3.8 mph 94% 0 in 0 W/m2
21:28 50.9 °F 49.3 °F 29.7 in Calm   3.8 mph 94% 0 in 0 W/m2
21:33 50.9 °F 49.5 °F 29.7 in North 0.7 mph 1.6 mph 95% 0 in 0 W/m2
21:38 50.7 °F 49.3 °F 29.7 in Calm   1.6 mph 95% 0 in 0 W/m2
21:43 50.5 °F 49.3 °F 29.7 in North 0.7 mph 1.6 mph 95% 0 in 0 W/m2
21:48 50.5 °F 49.3 °F 29.7 in NNW 1.6 mph 2.2 mph 95% 0 in 0 W/m2
21:53 50.4 °F 48.9 °F 29.7 in NNW 0.7 mph 2.2 mph 95% 0 in 0 W/m2
21:58 50 °F 48.6 °F 29.7 in NNW 0.7 mph 2.2 mph 95% 0 in 0 W/m2
22:03 50 °F 48.9 °F 29.7 in NNW 2.2 mph 3.8 mph 96% 0 in 0 W/m2
22:08 49.8 °F 48.9 °F 29.7 in NNW 1.6 mph 3.8 mph 97% 0 in 0 W/m2
22:13 49.8 °F 48.9 °F 29.7 in NNW 2.2 mph 4.5 mph 97% 0 in 0 W/m2
22:18 49.6 °F 49.1 °F 29.7 in NNW 2.2 mph 4.5 mph 98% 0 in 0 W/m2
22:23 49.5 °F 48.9 °F 29.7 in NNW 1.6 mph 4.5 mph 98% 0 in 0 W/m2
22:28 49.6 °F 49.1 °F 29.7 in NNW 3.8 mph 4.5 mph 98% 0 in 0 W/m2
22:33 50.2 °F 49.6 °F 29.7 in North 3.1 mph 6 mph 98% 0 in 0 W/m2
22:38 50.4 °F 49.8 °F 29.7 in North 3.1 mph 6 mph 98% 0 in 0 W/m2
22:43 50.5 °F 50.4 °F 29.7 in North 5.4 mph 8.3 mph 99% 0 in 0 W/m2
22:48 50.9 °F 50.5 °F 29.7 in North 3.8 mph 9.2 mph 99% 0 in 0 W/m2
22:53 51.1 °F 50.7 °F 29.7 in North 4.5 mph 11.4 mph 99% 0 in 0 W/m2
22:58 51.1 °F 50.7 °F 29.7 in North 5.4 mph 11.4 mph 99% 0 in 0 W/m2
23:03 51.1 °F 50.7 °F 29.7 in North 5.4 mph 9.2 mph 99% 0 in 0 W/m2
23:08 50.9 °F 50.5 °F 29.7 in North 3.8 mph 9.2 mph 99% 0 in 0 W/m2
23:13 50.9 °F 50.5 °F 29.7 in North 3.1 mph 7.6 mph 99% 0 in 0 W/m2
23:18 50.4 °F 50.2 °F 29.7 in NNW 6 mph 7.6 mph 99% 0 in 0 W/m2
23:23 50 °F 49.6 °F 29.7 in NNW 3.8 mph 7.6 mph 99% 0 in 0 W/m2
23:28 49.6 °F 49.5 °F 29.7 in NNW 4.5 mph 7.6 mph 99% 0 in 0 W/m2
23:33 49.5 °F 49.3 °F 29.7 in NW 3.8 mph 6 mph 99% 0 in 0 W/m2
23:38 49.3 °F 48.9 °F 29.7 in NW 1.6 mph 6 mph 99% 0 in 0 W/m2
23:43 49.1 °F 48.7 °F 29.7 in NW 1.6 mph 4.5 mph 99% 0 in 0 W/m2
23:48 48.9 °F 48.7 °F 29.7 in NW 0.7 mph 3.1 mph 99% 0 in 0 W/m2
23:53 48.9 °F 48.7 °F 29.7 in NNW 1.6 mph 2.2 mph 99% 0 in 0 W/m2
23:58 49.3 °F 48.9 °F 29.7 in NNW 1.6 mph 3.8 mph 99% 0 in 0 W/m2
Northern Hawkes Bay. New Zealand Historic Data
Compliments of Weather Underground - 2 mb